Venez Explorer Les Airs Avec Nous!

Que ce soit pour un vol de découverte, pour apprendre l’arts du pilotage ou pour voyager, venez nous rejoindre.

Information en heures locale pour LFDL
17 August 2019

Metar
LFBI 171400Z AUTO 22016KT 4500 -RADZ BR BKN008 OVC016 21/20 Q1013 BECMG 9999 NSW BKN015

Lever du soleil aéronautique : 06:30

Lever du soleil : 07:00

Coucher du soleil : 21:07

Coucher du soleil aéronautique : 21:37

Actualité

Bienvenue à tous, l' Aéroclub Loudunais vous accueille sur son nouveau site internet.

Newsletter Sign Up

Praesent libero sed cursus anted dapibus diam
Fermer le menu